Time;durP1;ratioP1;P1;durP2;ratioP2;P2;SDS_P1;SDS_P2;PMS_P1;PMS_P2;Temp;Humidity;BMP_temperature;BMP_pressure;BME280_temperature;BME280_humidity;BME280_pressure;Samples;Min_cycle;Max_cycle;Signal;HPM_P1;HPM_P2
2021/01/05 00:02:01;;;;;;;8.05;4.57;;;;;;;1.52;95.70;102048.13;4992624;28;20051;-78
2021/01/05 00:04:33;;;;;;;10.77;5.18;;;;;;;1.55;95.30;102046.28;4996830;28;20050;-78
2021/01/05 00:07:01;;;;;;;10.30;4.68;;;;;;;1.52;95.66;102048.13;5013380;28;20054;-80
2021/01/05 00:09:26;;;;;;;7.32;4.07;;;;;;;1.54;95.28;102043.75;4998939;28;20130;-78
2021/01/05 00:11:59;;;;;;;9.82;4.97;;;;;;;1.52;96.15;102040.38;4992996;28;20144;-79
2021/01/05 00:14:25;;;;;;;7.40;4.28;;;;;;;1.59;95.55;102049.59;4990618;28;20042;-79
2021/01/05 00:16:51;;;;;;;9.55;4.57;;;;;;;1.58;95.80;102049.66;5006601;28;20030;-80
2021/01/05 00:19:18;;;;;;;8.43;4.07;;;;;;;1.53;95.71;102052.41;5003141;28;20359;-79
2021/01/05 00:21:44;;;;;;;7.28;4.68;;;;;;;1.50;95.88;102042.19;4993864;28;20038;-80
2021/01/05 00:24:09;;;;;;;9.82;4.40;;;;;;;1.57;96.20;102042.81;4976040;28;20076;-82
2021/01/05 00:26:36;;;;;;;9.25;3.85;;;;;;;1.59;96.23;102047.00;4995823;28;20121;-82
2021/01/05 00:29:02;;;;;;;6.35;4.13;;;;;;;1.54;95.49;102042.03;4994836;28;20034;-83
2021/01/05 00:31:28;;;;;;;7.72;3.92;;;;;;;1.54;95.88;102036.84;5009044;28;20036;-83
2021/01/05 00:33:53;;;;;;;13.18;3.65;;;;;;;1.58;95.58;102044.47;4991872;28;20030;-81
2021/01/05 00:36:19;;;;;;;6.20;3.63;;;;;;;1.57;95.76;102038.47;4993600;28;20061;-82
2021/01/05 00:38:44;;;;;;;5.78;3.83;;;;;;;1.57;95.62;102033.31;5010935;28;20067;-82
2021/01/05 00:41:10;;;;;;;6.68;3.80;;;;;;;1.49;95.72;102037.94;5001024;28;20056;-79
2021/01/05 00:43:35;;;;;;;7.40;3.30;;;;;;;1.55;95.58;102040.28;4997815;28;20045;-80
2021/01/05 00:46:01;;;;;;;6.53;3.67;;;;;;;1.51;95.26;102036.97;4979135;28;20610;-80
2021/01/05 00:48:26;;;;;;;6.50;3.40;;;;;;;1.51;95.69;102049.88;4976094;28;20513;-81
2021/01/05 00:50:52;;;;;;;5.30;3.45;;;;;;;1.51;95.10;102039.53;4987972;28;20042;-80
2021/01/05 00:53:18;;;;;;;8.20;3.55;;;;;;;1.60;95.06;102038.38;4999691;28;20451;-80
2021/01/05 00:55:43;;;;;;;10.75;3.72;;;;;;;1.54;95.41;102043.75;5005915;28;20488;-80
2021/01/05 01:10:28;;;;;;;4.32;3.60;;;;;;;1.57;95.17;102030.72;4968281;28;20050;-82
2021/01/05 01:12:54;;;;;;;6.55;3.53;;;;;;;1.58;94.99;102036.72;4987106;28;20038;-81
2021/01/05 01:15:20;;;;;;;6.10;3.55;;;;;;;1.57;94.54;102047.97;4991813;28;20035;-83
2021/01/05 01:17:47;;;;;;;6.32;4.43;;;;;;;1.64;95.02;102039.06;4977149;28;20045;-79
2021/01/05 01:20:16;;;;;;;6.03;4.57;;;;;;;1.52;95.44;102042.97;4991935;28;20038;-80
2021/01/05 01:22:41;;;;;;;6.65;3.90;;;;;;;1.49;95.96;102036.16;4996092;28;20404;-80
2021/01/05 01:25:12;;;;;;;5.78;4.30;;;;;;;1.47;95.21;102035.38;4975333;28;20046;-81
2021/01/05 01:27:40;;;;;;;5.03;3.42;;;;;;;1.54;95.44;102047.19;4989893;28;20031;-79
2021/01/05 01:30:08;;;;;;;7.22;3.63;;;;;;;1.61;95.11;102057.31;4988914;28;20042;-80
2021/01/05 01:32:44;;;;;;;6.97;3.55;;;;;;;1.56;94.87;102041.94;4966073;28;20037;-81
2021/01/05 01:35:12;;;;;;;7.32;3.30;;;;;;;1.52;95.08;102041.22;4993527;28;20030;-82
2021/01/05 01:37:40;;;;;;;5.07;3.33;;;;;;;1.57;95.07;102048.81;4976457;28;20034;-80
2021/01/05 01:40:08;;;;;;;4.47;2.80;;;;;;;1.62;94.39;102046.03;4983262;28;20045;-78
2021/01/05 01:42:34;;;;;;;5.50;2.58;;;;;;;1.60;94.53;102047.84;4992432;28;20031;-81
2021/01/05 01:45:00;;;;;;;4.30;2.80;;;;;;;1.58;94.62;102049.66;5008199;28;20088;-81
2021/01/05 01:47:29;;;;;;;5.70;2.80;;;;;;;1.55;94.81;102050.63;4982089;28;20037;-80
2021/01/05 01:50:12;;;;;;;6.22;2.88;;;;;;;1.46;94.45;102041.44;4972512;28;20489;-81
2021/01/05 01:53:03;;;;;;;4.05;2.40;;;;;;;1.48;94.61;102047.41;5010689;28;20038;-80
2021/01/05 01:55:52;;;;;;;3.15;2.53;;;;;;;1.49;94.33;102054.28;5005355;28;20042;-78
2021/01/05 01:58:54;;;;;;;3.15;2.42;;;;;;;1.44;94.78;102053.59;4997342;28;20042;-81
2021/01/05 02:01:38;;;;;;;3.50;2.38;;;;;;;1.33;95.35;102037.63;5011011;28;20101;-80
2021/01/05 02:04:23;;;;;;;4.70;2.60;;;;;;;1.35;95.42;102047.00;4993151;28;20049;-82
2021/01/05 02:07:10;;;;;;;5.25;3.00;;;;;;;1.36;95.39;102040.94;4992440;28;20046;-80
2021/01/05 02:09:48;;;;;;;4.13;2.85;;;;;;;1.31;95.63;102050.59;4991940;28;20038;-80
2021/01/05 02:12:25;;;;;;;4.95;2.92;;;;;;;1.25;95.85;102049.97;5000266;28;20041;-79
2021/01/05 02:14:57;;;;;;;4.20;2.65;;;;;;;1.19;94.83;102035.53;5003393;28;20510;-80
2021/01/05 02:17:43;;;;;;;;;;;;;;;1.23;95.25;102044.88;4991214;28;20049;-80
2021/01/05 02:20:29;;;;;;;4.20;2.92;;;;;;;1.16;95.84;102039.06;4982399;28;20414;-80
2021/01/05 02:23:13;;;;;;;5.32;2.90;;;;;;;1.17;96.21;102034.75;5000796;28;20034;-80
2021/01/05 02:26:01;;;;;;;5.07;3.05;;;;;;;1.16;96.57;102039.06;4991205;28;20657;-82
2021/01/05 02:28:38;;;;;;;5.07;3.85;;;;;;;1.11;96.84;102029.78;4961480;28;20037;-81
2021/01/05 02:31:15;;;;;;;7.22;4.05;;;;;;;1.19;96.15;102037.25;4991242;28;20048;-81
2021/01/05 02:34:03;;;;;;;9.63;3.92;;;;;;;1.21;96.63;102030.31;4974744;28;20053;-80
2021/01/05 02:36:59;;;;;;;8.02;3.65;;;;;;;1.17;96.45;102034.75;5001866;28;20038;-79
2021/01/05 02:39:54;;;;;;;;;;;;;;;1.17;96.82;102025.25;5007403;28;20400;-81
2021/01/05 02:42:48;;;;;;;6.28;3.88;;;;;;;1.26;96.74;102036.16;4976551;28;19968;-78
2021/01/05 02:46:03;;;;;;;11.88;4.53;;;;;;;1.23;96.66;102028.53;4958083;28;20070;-81
2021/01/05 02:49:10;;;;;;;5.43;3.65;;;;;;;1.25;96.99;102035.31;5007539;28;20041;-78
2021/01/05 02:52:33;;;;;;;8.88;4.10;;;;;;;1.26;97.04;102029.25;4989695;28;20136;-80
2021/01/05 02:55:55;;;;;;;10.93;4.32;;;;;;;1.25;96.87;102032.72;4997469;28;20069;-78
2021/01/05 02:58:58;;;;;;;6.47;3.92;;;;;;;1.28;96.57;102031.75;4986062;28;20054;-77
2021/01/05 03:02:10;;;;;;;10.13;4.38;;;;;;;1.23;97.32;102025.94;4996157;28;20160;-79
2021/01/05 03:04:54;;;;;;;5.93;4.35;;;;;;;1.26;97.20;102028.38;4975894;28;20121;-78
2021/01/05 03:07:38;;;;;;;8.93;4.30;;;;;;;1.24;96.91;102020.69;4970495;28;20382;-77
2021/01/05 03:10:42;;;;;;;7.20;4.22;;;;;;;1.26;97.51;102029.25;4970443;28;20061;-79
2021/01/05 03:13:50;;;;;;;8.50;4.30;;;;;;;1.29;96.78;102030.88;4966135;28;20065;-78
2021/01/05 03:16:39;;;;;;;6.38;4.18;;;;;;;1.29;97.01;102023.97;4958431;28;20077;-77
2021/01/05 03:19:40;;;;;;;10.57;4.30;;;;;;;1.22;97.30;102022.47;4956919;28;20051;-79
2021/01/05 03:22:28;;;;;;;8.77;4.65;;;;;;;1.24;97.77;102028.44;4971448;28;20039;-77
2021/01/05 03:25:14;;;;;;;8.23;4.20;;;;;;;1.30;97.51;102023.06;4971973;28;20448;-81
2021/01/05 03:28:01;;;;;;;11.18;4.38;;;;;;;1.28;97.03;102024.88;4971224;28;20035;-78
2021/01/05 03:30:49;;;;;;;7.28;4.18;;;;;;;1.33;97.07;102027.28;4959438;28;20045;-78
2021/01/05 03:33:33;;;;;;;8.52;4.10;;;;;;;1.27;97.16;102023.16;4968460;28;20444;-78
2021/01/05 03:36:18;;;;;;;9.02;4.53;;;;;;;1.31;97.38;102026.50;4963446;28;20526;-80
2021/01/05 03:39:03;;;;;;;6.85;4.60;;;;;;;1.34;97.35;102029.81;4974844;28;20066;-79
2021/01/05 03:41:49;;;;;;;7.00;4.47;;;;;;;1.31;97.34;102023.91;4960142;28;20445;-77
2021/01/05 03:44:34;;;;;;;8.90;4.75;;;;;;;1.30;97.52;102030.81;4959171;28;20517;-78
2021/01/05 03:47:19;;;;;;;8.10;4.90;;;;;;;1.27;97.71;102027.50;4983282;28;20097;-78
2021/01/05 03:50:04;;;;;;;7.07;5.03;;;;;;;1.32;97.66;102023.03;4975112;28;20050;-78
2021/01/05 03:52:48;;;;;;;13.30;4.93;;;;;;;1.34;97.42;102034.97;4987289;28;20061;-79
2021/01/05 03:55:32;;;;;;;9.75;4.72;;;;;;;1.34;97.18;102021.22;4974117;28;20561;-78
2021/01/05 03:58:16;;;;;;;9.43;5.93;;;;;;;1.34;96.90;102019.47;4987358;28;20042;-77
2021/01/05 04:01:00;;;;;;;8.48;4.85;;;;;;;1.42;96.85;102026.94;4974151;28;20042;-78
2021/01/05 04:03:26;;;;;;;8.50;5.28;;;;;;;1.40;96.73;102023.56;4974037;28;20038;-78
2021/01/05 04:05:52;;;;;;;9.15;5.30;;;;;;;1.45;96.53;102025.97;4972960;28;20038;-78
2021/01/05 04:08:17;;;;;;;13.45;5.45;;;;;;;1.42;96.26;102021.78;4974643;28;20062;-78
2021/01/05 04:10:43;;;;;;;8.60;5.30;;;;;;;1.40;97.12;102021.00;4974162;28;20116;-79
2021/01/05 04:13:09;;;;;;;8.73;5.43;;;;;;;1.46;96.57;102033.69;4971889;28;20065;-80
2021/01/05 04:15:34;;;;;;;11.00;5.90;;;;;;;1.41;96.84;102030.41;4962120;28;20035;-78
2021/01/05 04:18:00;;;;;;;14.55;5.90;;;;;;;1.49;96.63;102023.25;4973065;28;20126;-80
2021/01/05 04:20:28;;;;;;;12.90;5.80;;;;;;;1.47;96.54;102026.75;4990037;28;20568;-79
2021/01/05 04:22:54;;;;;;;12.57;5.95;;;;;;;1.47;96.79;102022.47;4974400;28;20034;-79
2021/01/05 04:25:20;;;;;;;9.18;6.07;;;;;;;1.52;96.83;102025.69;4973162;28;20038;-80
2021/01/05 04:27:47;;;;;;;9.93;6.05;;;;;;;1.49;96.59;102030.16;4983272;28;20066;-78
2021/01/05 04:30:19;;;;;;;8.93;6.22;;;;;;;1.48;96.61;102029.31;4957186;28;20052;-80
2021/01/05 04:32:44;;;;;;;8.52;6.05;;;;;;;1.49;96.57;102020.66;4975140;28;20037;-79
2021/01/05 04:35:10;;;;;;;9.68;6.25;;;;;;;1.50;96.73;102035.25;4962413;28;20034;-79
2021/01/05 04:37:36;;;;;;;12.98;6.18;;;;;;;1.51;96.35;102036.97;4960885;28;20042;-78
2021/01/05 04:40:02;;;;;;;8.68;5.90;;;;;;;1.56;95.72;102039.34;4972400;28;20042;-79
2021/01/05 04:42:37;;;;;;;11.48;7.22;;;;;;;1.55;96.44;102041.09;4969191;28;20422;-81
2021/01/05 04:45:08;;;;;;;11.95;6.38;;;;;;;1.48;96.32;102039.63;4973144;28;20058;-79
2021/01/05 04:48:04;;;;;;;10.65;6.25;;;;;;;1.58;95.93;102034.97;4956980;28;20045;-78
2021/01/05 04:50:48;;;;;;;14.38;7.53;;;;;;;1.53;96.52;102044.66;4973395;28;20065;-79
2021/01/05 04:53:26;;;;;;;15.18;7.35;;;;;;;1.55;96.44;102048.03;4971686;28;20042;-80
2021/01/05 04:55:58;;;;;;;11.02;6.82;;;;;;;1.59;96.29;102046.19;4973227;28;20042;-80
2021/01/05 04:58:46;;;;;;;11.77;6.63;;;;;;;1.53;96.15;102042.91;4958772;28;20054;-78
2021/01/05 05:01:17;;;;;;;12.18;7.30;;;;;;;1.54;96.23;102042.03;4971897;28;20072;-78
2021/01/05 05:04:01;;;;;;;12.05;7.05;;;;;;;1.54;96.44;102044.63;4948399;28;20057;-79
2021/01/05 05:06:38;;;;;;;11.90;6.43;;;;;;;1.58;96.48;102045.31;4973034;28;20035;-79
2021/01/05 05:09:15;;;;;;;12.48;6.93;;;;;;;1.63;96.10;102052.91;4972328;28;20078;-79
2021/01/05 05:12:06;;;;;;;9.52;6.50;;;;;;;1.65;95.78;102053.72;4956615;28;20109;-80
2021/01/05 05:15:01;;;;;;;12.38;7.53;;;;;;;1.65;95.98;102051.94;4951697;28;20066;-79
2021/01/05 05:17:43;;;;;;;16.25;7.28;;;;;;;1.57;96.63;102048.81;4956321;28;20039;-79
2021/01/05 05:20:26;;;;;;;13.82;7.07;;;;;;;1.62;96.50;102052.09;4972326;28;20054;-77
2021/01/05 05:23:19;;;;;;;15.63;7.82;;;;;;;1.63;96.38;102042.56;4972154;28;20047;-77
2021/01/05 05:25:49;;;;;;;12.32;6.90;;;;;;;1.64;95.68;102044.25;4976151;28;20045;-79
2021/01/05 05:28:23;;;;;;;14.13;7.65;;;;;;;1.59;96.07;102047.00;4970499;28;20046;-78
2021/01/05 05:30:49;;;;;;;12.65;6.95;;;;;;;1.62;95.67;102051.22;4956305;28;20054;-80
2021/01/05 05:33:25;;;;;;;14.13;7.82;;;;;;;1.58;95.98;102054.81;4971273;28;20043;-78
2021/01/05 05:36:21;;;;;;;11.68;7.60;;;;;;;1.58;96.47;102058.25;4978115;28;20045;-76
2021/01/05 05:39:02;;;;;;;11.35;7.55;;;;;;;1.65;95.90;102051.13;4970002;28;20046;-80
2021/01/05 05:41:33;;;;;;;12.45;7.35;;;;;;;1.67;96.22;102057.06;4970953;28;20162;-81
2021/01/05 05:44:09;;;;;;;17.23;7.22;;;;;;;1.69;95.51;102053.53;4971510;28;20089;-77
2021/01/05 05:46:37;;;;;;;16.63;7.55;;;;;;;1.66;96.25;102064.00;4971717;28;20464;-78
2021/01/05 05:49:26;;;;;;;9.90;7.05;;;;;;;1.66;95.55;102063.16;4971524;28;20045;-79
2021/01/05 05:51:57;;;;;;;16.75;7.40;;;;;;;1.65;96.17;102056.28;4974386;28;20038;-80
2021/01/05 05:54:24;;;;;;;12.10;7.55;;;;;;;1.64;96.26;102058.03;4974948;28;20109;-79
2021/01/05 05:57:11;;;;;;;12.15;7.25;;;;;;;1.61;96.68;102055.56;4974209;28;20039;-80
2021/01/05 05:59:41;;;;;;;14.65;8.20;;;;;;;1.61;96.94;102060.72;4972985;28;20055;-79
2021/01/05 06:02:12;;;;;;;15.07;8.00;;;;;;;1.62;96.75;102058.97;4973193;28;20045;-77
2021/01/05 06:04:37;;;;;;;17.33;8.95;;;;;;;1.62;96.60;102066.75;4971709;28;20457;-79
2021/01/05 06:07:04;;;;;;;15.40;7.93;;;;;;;1.64;96.39;102060.63;4971054;28;20077;-78
2021/01/05 06:09:29;;;;;;;14.68;8.63;;;;;;;1.63;96.76;102058.94;4973074;28;20038;-79
2021/01/05 06:11:55;;;;;;;14.80;8.57;;;;;;;1.63;96.48;102056.34;4972332;28;20069;-80
2021/01/05 06:14:22;;;;;;;20.70;8.98;;;;;;;1.61;96.84;102058.16;4977170;28;20054;-78
2021/01/05 06:16:48;;;;;;;14.18;8.25;;;;;;;1.68;96.78;102069.13;4967806;28;20085;-76
2021/01/05 06:19:13;;;;;;;15.48;8.27;;;;;;;1.67;96.78;102062.25;4955501;28;20900;-81
2021/01/05 06:21:38;;;;;;;14.00;8.15;;;;;;;1.63;96.44;102058.94;4989475;28;20054;-80
2021/01/05 06:24:04;;;;;;;14.10;8.15;;;;;;;1.66;95.97;102065.75;4965488;28;20034;-79
2021/01/05 06:26:30;;;;;;;12.60;8.70;;;;;;;1.77;95.87;102067.91;4971409;28;20110;-78
2021/01/05 06:28:56;;;;;;;13.00;7.68;;;;;;;1.74;95.20;102061.97;4970585;28;20058;-78
2021/01/05 06:31:21;;;;;;;13.93;7.47;;;;;;;1.81;95.31;102077.25;4970475;28;20054;-78
2021/01/05 06:33:46;;;;;;;13.85;8.20;;;;;;;1.74;95.62;102074.06;4955297;28;20062;-78
2021/01/05 06:36:12;;;;;;;13.25;8.10;;;;;;;1.70;96.07;102073.34;4973484;28;20054;-79
2021/01/05 06:38:38;;;;;;;11.35;7.55;;;;;;;1.78;95.43;102085.16;4970994;28;20520;-79
2021/01/05 06:41:03;;;;;;;12.63;8.00;;;;;;;1.80;95.43;102071.25;4980189;28;20041;-78
2021/01/05 06:43:29;;;;;;;15.48;8.15;;;;;;;1.80;95.83;102075.56;4977380;28;20034;-80
2021/01/05 06:45:54;;;;;;;12.60;8.30;;;;;;;1.73;96.02;102073.22;4940101;28;20046;-80
2021/01/05 06:48:20;;;;;;;15.02;8.68;;;;;;;1.62;96.15;102064.16;4972388;28;20042;-80
2021/01/05 06:50:45;;;;;;;16.48;8.45;;;;;;;1.76;95.60;102074.84;4973464;28;20520;-82
2021/01/05 06:53:11;;;;;;;13.20;7.78;;;;;;;1.77;95.89;102080.84;4954428;28;20401;-81
2021/01/05 06:55:36;;;;;;;15.00;8.68;;;;;;;1.74;95.72;102071.47;4971918;28;20121;-78
2021/01/05 06:58:02;;;;;;;14.63;8.88;;;;;;;1.70;96.01;102082.84;4970615;28;20166;-78
2021/01/05 07:00:29;;;;;;;11.48;7.75;;;;;;;1.81;95.50;102077.25;4951846;28;20122;-79
2021/01/05 07:02:55;;;;;;;18.77;9.55;;;;;;;1.79;96.32;102084.22;4954258;28;20525;-78
2021/01/05 07:05:22;;;;;;;15.73;7.82;;;;;;;1.77;95.70;102083.44;4973661;28;20042;-77
2021/01/05 07:07:48;;;;;;;12.32;7.40;;;;;;;1.80;95.73;102081.59;4965181;28;20046;-77
2021/01/05 07:10:15;;;;;;;12.23;7.75;;;;;;;1.86;95.06;102081.34;4986398;28;20083;-78
2021/01/05 07:12:41;;;;;;;15.55;7.13;;;;;;;1.83;95.33;102083.22;4968498;28;20041;-78
2021/01/05 07:15:09;;;;;;;14.52;7.50;;;;;;;1.86;95.38;102088.28;4971534;28;20042;-78
2021/01/05 07:17:35;;;;;;;15.68;8.93;;;;;;;1.78;96.29;102091.16;4954994;28;20050;-78
2021/01/05 07:20:03;;;;;;;19.75;8.13;;;;;;;1.85;95.61;102090.03;4970574;28;20413;-79
2021/01/05 07:22:28;;;;;;;13.60;7.68;;;;;;;1.84;95.69;102090.09;4970857;28;20046;-78
2021/01/05 07:24:53;;;;;;;14.00;7.93;;;;;;;1.88;95.40;102099.41;4970281;28;20070;-78
2021/01/05 07:27:19;;;;;;;12.85;8.05;;;;;;;1.86;95.77;102091.69;4972591;28;20130;-78
2021/01/05 07:29:44;;;;;;;17.75;7.70;;;;;;;1.88;95.53;102097.66;4971363;28;20039;-78
2021/01/05 07:32:10;;;;;;;11.55;7.50;;;;;;;1.90;95.33;102097.59;4955176;28;20066;-79
2021/01/05 07:34:38;;;;;;;13.38;7.88;;;;;;;1.84;95.61;102106.44;4971050;28;20042;-80
2021/01/05 07:37:20;;;;;;;14.73;7.38;;;;;;;1.87;96.13;102103.75;4953214;28;20391;-78
2021/01/05 07:39:46;;;;;;;11.98;8.15;;;;;;;1.82;96.03;102105.66;4971142;28;20047;-80
2021/01/05 07:42:29;;;;;;;18.10;8.00;;;;;;;1.78;95.92;102106.69;4985029;28;20066;-77
2021/01/05 07:44:58;;;;;;;12.38;7.68;;;;;;;1.88;96.07;102120.13;4955011;28;20045;-77
2021/01/05 07:47:26;;;;;;;15.20;7.63;;;;;;;1.87;96.14;102113.28;4970928;28;20126;-77
2021/01/05 07:49:52;;;;;;;12.38;7.93;;;;;;;1.83;96.27;102117.72;4970735;28;20046;-78
2021/01/05 07:52:23;;;;;;;15.10;9.18;;;;;;;1.86;96.74;102112.41;4969546;28;20054;-78
2021/01/05 07:54:49;;;;;;;15.02;9.02;;;;;;;1.82;96.36;102110.84;4954108;28;20039;-76
2021/01/05 07:57:15;;;;;;;13.82;8.57;;;;;;;1.82;96.64;102122.94;4970518;28;20074;-79
2021/01/05 07:59:41;;;;;;;17.42;9.50;;;;;;;1.78;96.74;102111.84;4987427;28;20729;-77
2021/01/05 08:02:08;;;;;;;19.33;9.80;;;;;;;1.76;96.95;102116.25;4969802;28;20098;-78
2021/01/05 08:04:33;;;;;;;15.38;9.13;;;;;;;1.79;96.61;102113.56;4970562;28;20145;-79
2021/01/05 08:06:59;;;;;;;15.18;9.60;;;;;;;1.82;96.99;102105.66;4969270;28;20062;-77
2021/01/05 08:09:24;;;;;;;15.93;9.52;;;;;;;1.79;97.05;102104.94;5006642;28;20029;-77
2021/01/05 08:11:50;;;;;;;16.35;9.93;;;;;;;1.80;96.97;102104.03;4990828;28;20067;-77
2021/01/05 08:14:15;;;;;;;15.68;10.32;;;;;;;1.82;97.29;102110.84;4997486;28;20043;-78
2021/01/05 08:16:41;;;;;;;17.10;9.18;;;;;;;1.84;97.10;102108.19;4992643;28;20603;-78
2021/01/05 08:19:06;;;;;;;17.70;9.68;;;;;;;1.85;97.08;102110.72;4995551;28;20033;-77
2021/01/05 08:21:32;;;;;;;16.63;9.82;;;;;;;1.74;96.88;102100.78;4992608;28;20058;-77
2021/01/05 08:23:57;;;;;;;16.67;9.27;;;;;;;1.80;96.94;102110.03;4991695;28;20485;-78
2021/01/05 08:26:24;;;;;;;16.83;9.23;;;;;;;1.87;96.71;102116.69;4945766;28;20051;-79
2021/01/05 08:28:49;;;;;;;16.35;10.15;;;;;;;1.84;97.24;102114.19;4959039;28;20038;-80
2021/01/05 08:31:15;;;;;;;14.70;9.25;;;;;;;1.91;96.65;102113.09;4990877;28;20042;-80
2021/01/05 08:33:41;;;;;;;13.48;9.40;;;;;;;1.93;96.92;102113.88;4975308;28;20039;-78
2021/01/05 08:36:07;;;;;;;20.67;9.98;;;;;;;1.95;96.61;102116.41;4958954;28;20061;-77
2021/01/05 08:38:33;;;;;;;16.98;8.95;;;;;;;1.89;96.53;102121.81;4974588;28;20049;-80
2021/01/05 08:40:58;;;;;;;14.85;9.85;;;;;;;1.93;96.83;102124.22;4975986;28;20451;-79
2021/01/05 08:43:24;;;;;;;15.27;9.02;;;;;;;1.87;97.05;102121.03;4976762;28;20039;-80
2021/01/05 08:45:50;;;;;;;16.48;9.43;;;;;;;1.91;97.05;102126.03;4975218;28;20038;-80
2021/01/05 08:48:15;;;;;;;17.92;8.98;;;;;;;1.92;96.73;102122.56;4976295;28;20119;-79
2021/01/05 08:50:40;;;;;;;14.68;9.35;;;;;;;1.89;97.17;102125.25;4999560;28;20030;-77
2021/01/05 08:53:09;;;;;;;13.82;8.68;;;;;;;1.89;97.10;102125.25;4998052;28;20027;-77
2021/01/05 08:55:39;;;;;;;15.70;8.98;;;;;;;1.91;96.96;102126.03;4995782;28;20050;-78
2021/01/05 08:58:05;;;;;;;16.92;9.23;;;;;;;1.92;97.22;102122.56;4984367;28;20102;-77
2021/01/05 09:00:31;;;;;;;14.68;8.60;;;;;;;1.91;97.33;102122.59;4977369;28;20127;-78
2021/01/05 09:02:56;;;;;;;17.77;9.20;;;;;;;1.91;97.22;102115.66;4974615;28;20181;-80
2021/01/05 09:05:23;;;;;;;10.73;7.60;;;;;;;1.88;97.19;102110.59;4973678;28;20064;-78
2021/01/05 09:07:51;;;;;;;12.80;7.93;;;;;;;1.93;97.19;102125.97;4976934;28;20042;-78
2021/01/05 09:10:21;;;;;;;12.38;7.65;;;;;;;2.00;96.52;102134.34;4974140;28;20393;-78
2021/01/05 09:12:46;;;;;;;13.18;7.20;;;;;;;2.01;96.54;102125.69;4980702;28;20079;-79
2021/01/05 09:15:14;;;;;;;12.80;7.60;;;;;;;2.03;96.57;102132.47;4954381;28;20074;-78
2021/01/05 09:17:42;;;;;;;12.35;6.88;;;;;;;2.02;96.70;102122.22;4973533;28;20038;-78
2021/01/05 09:20:09;;;;;;;10.38;7.10;;;;;;;2.04;96.40;102130.75;4973661;28;20047;-79
2021/01/05 09:22:34;;;;;;;10.55;6.82;;;;;;;2.04;96.31;102128.16;4956255;28;20046;-79
2021/01/05 09:24:59;;;;;;;12.02;7.45;;;;;;;2.03;96.05;102122.13;4974162;28;20031;-78
2021/01/05 09:27:25;;;;;;;13.10;6.80;;;;;;;2.03;96.77;102123.88;4973575;28;20046;-79
2021/01/05 09:29:50;;;;;;;13.20;7.00;;;;;;;2.05;96.62;102122.06;4974330;28;20524;-79
2021/01/05 09:32:16;;;;;;;10.98;7.20;;;;;;;2.11;95.82;102129.59;4973042;28;20039;-79
2021/01/05 09:34:41;;;;;;;10.98;6.65;;;;;;;2.12;96.43;102129.53;4973040;28;20047;-79
2021/01/05 09:37:08;;;;;;;9.18;6.30;;;;;;;2.14;95.89;102127.75;4972686;28;20117;-78
2021/01/05 09:39:33;;;;;;;8.40;6.05;;;;;;;2.20;95.43;102134.44;4969637;28;20047;-78
2021/01/05 09:42:02;;;;;;;10.10;6.72;;;;;;;2.20;95.13;102124.06;4973543;28;20117;-80
2021/01/05 09:44:28;;;;;;;13.77;6.47;;;;;;;2.21;95.56;102130.97;4956875;28;20026;-79
2021/01/05 09:46:59;;;;;;;13.35;6.70;;;;;;;2.23;95.28;102130.91;4974386;28;20121;-80
2021/01/05 09:49:26;;;;;;;11.82;6.95;;;;;;;2.17;95.43;102128.53;4973563;28;20170;-82
2021/01/05 09:51:56;;;;;;;11.32;6.60;;;;;;;2.26;94.77;102133.34;4977198;28;20115;-81
2021/01/05 09:54:22;;;;;;;9.85;6.70;;;;;;;2.22;94.98;102127.44;4990155;28;20039;-78
2021/01/05 09:56:55;;;;;;;10.70;7.10;;;;;;;2.21;95.47;102124.94;4956905;28;20077;-80
2021/01/05 09:59:22;;;;;;;10.32;7.07;;;;;;;2.25;95.12;102134.28;4965228;28;20176;-79
2021/01/05 10:01:48;;;;;;;11.80;6.90;;;;;;;2.20;95.17;102121.50;4956979;28;20122;-76
2021/01/05 10:04:14;;;;;;;15.00;8.07;;;;;;;2.23;95.46;102134.31;4972544;28;20117;-80
2021/01/05 10:06:40;;;;;;;11.25;6.60;;;;;;;2.23;94.93;102129.16;4972140;28;20037;-79
2021/01/05 10:09:09;;;;;;;13.73;6.88;;;;;;;2.25;94.97;102127.34;4971757;28;20034;-78
2021/01/05 10:11:38;;;;;;;10.18;6.40;;;;;;;2.29;94.33;102128.91;4944221;28;20045;-79
2021/01/05 10:14:04;;;;;;;14.15;7.15;;;;;;;2.33;94.13;102127.06;4976071;28;20421;-79
2021/01/05 10:16:30;;;;;;;11.13;7.10;;;;;;;2.30;94.43;102119.41;4979561;28;20047;-78
2021/01/05 10:18:55;;;;;;;11.77;7.18;;;;;;;2.31;94.52;102115.91;4989785;28;20061;-77
2021/01/05 10:21:24;;;;;;;9.48;6.85;;;;;;;2.32;94.21;102122.78;4971033;28;20031;-78
2021/01/05 10:23:50;;;;;;;12.35;5.85;;;;;;;2.41;93.56;102121.56;4974665;28;20065;-79
2021/01/05 10:26:15;;;;;;;11.88;6.20;;;;;;;2.37;94.10;102130.38;4987295;28;20069;-76
2021/01/05 10:28:41;;;;;;;9.68;6.20;;;;;;;2.44;94.18;102127.47;4971896;28;20485;-80
2021/01/05 10:31:07;;;;;;;8.73;5.80;;;;;;;2.44;93.29;102126.63;4971265;28;20082;-77
2021/01/05 10:33:32;;;;;;;9.35;5.75;;;;;;;2.47;93.23;102129.97;4971355;28;20046;-81
2021/01/05 10:35:58;;;;;;;10.70;5.50;;;;;;;2.46;93.08;102132.59;4971016;28;20404;-79
2021/01/05 10:38:23;;;;;;;7.57;5.90;;;;;;;2.41;93.05;102130.22;4972337;28;20054;-79
2021/01/05 10:40:52;;;;;;;7.28;5.90;;;;;;;2.42;93.46;102131.03;4954393;28;20102;-81
2021/01/05 10:43:18;;;;;;;8.18;5.70;;;;;;;2.45;93.23;102129.19;4970198;28;20038;-79
2021/01/05 10:45:43;;;;;;;8.00;5.18;;;;;;;2.52;93.13;102129.75;4971799;28;20589;-78
2021/01/05 10:48:09;;;;;;;10.73;5.60;;;;;;;2.56;93.05;102126.13;4955120;28;20046;-80
2021/01/05 10:50:34;;;;;;;7.53;5.40;;;;;;;2.51;92.99;102122.91;4972811;28;20534;-79
2021/01/05 10:52:59;;;;;;;7.85;5.57;;;;;;;2.49;93.32;102124.72;4970489;28;20038;-79
2021/01/05 10:55:25;;;;;;;6.90;5.30;;;;;;;2.51;93.59;102118.56;4971342;28;20489;-79
2021/01/05 10:57:51;;;;;;;7.45;5.57;;;;;;;2.50;93.24;102127.22;4954375;28;20031;-79
2021/01/05 11:00:18;;;;;;;8.18;5.60;;;;;;;2.54;93.03;102130.53;4971697;28;20038;-79
2021/01/05 11:02:44;;;;;;;7.18;5.38;;;;;;;2.52;93.45;102128.03;4953337;28;20106;-78
2021/01/05 11:05:15;;;;;;;8.57;5.55;;;;;;;2.62;92.85;102127.66;4954559;28;20523;-79
2021/01/05 11:07:42;;;;;;;8.10;5.50;;;;;;;2.66;93.10;102126.66;4971028;28;20518;-77
2021/01/05 11:10:09;;;;;;;8.88;4.97;;;;;;;2.67;92.22;102117.94;4970710;28;20043;-76
2021/01/05 11:12:34;;;;;;;9.40;5.30;;;;;;;2.65;92.22;102106.81;4973804;28;20061;-79
2021/01/05 11:15:00;;;;;;;7.97;5.50;;;;;;;2.69;92.05;102110.97;4978311;28;20118;-79
2021/01/05 11:17:26;;;;;;;7.47;5.72;;;;;;;2.67;92.22;102111.00;4987135;28;20260;-77
2021/01/05 11:19:51;;;;;;;8.20;5.60;;;;;;;2.70;92.23;102110.91;4971758;28;20032;-78
2021/01/05 11:22:20;;;;;;;7.97;5.50;;;;;;;2.70;92.41;102100.53;4972315;28;20370;-79
2021/01/05 11:24:46;;;;;;;9.40;5.60;;;;;;;2.78;92.05;102107.16;4970282;28;20130;-78
2021/01/05 11:27:17;;;;;;;8.57;5.57;;;;;;;2.82;92.26;102101.78;4954699;28;20086;-79
2021/01/05 11:29:45;;;;;;;8.20;4.65;;;;;;;2.78;92.05;102101.97;4973069;28;20042;-79
2021/01/05 11:32:13;;;;;;;6.95;4.85;;;;;;;2.77;91.58;102097.69;4971137;28;20451;-80
2021/01/05 11:34:39;;;;;;;7.57;4.90;;;;;;;2.79;91.93;102094.16;4972888;28;20474;-80
2021/01/05 11:37:12;;;;;;;6.93;4.90;;;;;;;2.79;91.83;102090.69;4956717;28;20611;-80
2021/01/05 11:39:40;;;;;;;7.90;4.63;;;;;;;2.85;91.64;102093.88;4988322;28;20088;-79
2021/01/05 11:42:07;;;;;;;6.05;3.55;;;;;;;2.88;90.72;102088.59;4956267;28;20464;-77
2021/01/05 11:44:32;;;;;;;5.97;4.10;;;;;;;2.91;90.78;102085.84;4972015;28;20038;-78
2021/01/05 11:46:58;;;;;;;6.43;4.20;;;;;;;2.92;90.90;102086.72;4960932;28;20517;-80
2021/01/05 11:49:25;;;;;;;7.35;4.65;;;;;;;2.94;90.59;102092.66;4966546;28;20042;-79
2021/01/05 11:51:53;;;;;;;5.97;3.78;;;;;;;2.91;89.86;102085.84;4975093;28;20043;-78
2021/01/05 11:54:20;;;;;;;5.18;3.60;;;;;;;2.95;89.71;102086.56;4959097;28;20050;-77
2021/01/05 11:56:46;;;;;;;3.90;3.42;;;;;;;3.03;90.42;102078.47;4944358;28;20050;-81
2021/01/05 11:59:13;;;;;;;4.60;3.80;;;;;;;3.10;89.47;102072.13;4977196;28;20027;-81
2021/01/05 12:01:40;;;;;;;7.40;4.13;;;;;;;3.08;89.93;102084.31;4959538;28;20552;-80
2021/01/05 12:04:07;;;;;;;4.70;3.20;;;;;;;3.05;89.64;102072.31;4992310;28;20039;-80